sensor_id;sensor_type;location;lat;lon;timestamp;P1;durP1;ratioP1;P2;durP2;ratioP2
8312;SDS011;4194;43.408;24.626;2022-12-13T00:00:16;10.03;;;6.17;;
8312;SDS011;4194;43.408;24.626;2022-12-13T00:02:43;10.50;;;6.27;;
8312;SDS011;4194;43.408;24.626;2022-12-13T00:05:09;10.10;;;6.20;;
8312;SDS011;4194;43.408;24.626;2022-12-13T00:07:35;9.27;;;6.47;;
8312;SDS011;4194;43.408;24.626;2022-12-13T00:10:02;9.87;;;6.20;;
8312;SDS011;4194;43.408;24.626;2022-12-13T00:12:28;9.67;;;6.40;;
8312;SDS011;4194;43.408;24.626;2022-12-13T00:14:54;11.97;;;6.83;;
8312;SDS011;4194;43.408;24.626;2022-12-13T00:17:20;9.53;;;6.13;;
8312;SDS011;4194;43.408;24.626;2022-12-13T00:19:45;9.43;;;6.87;;
8312;SDS011;4194;43.408;24.626;2022-12-13T00:22:11;11.03;;;7.03;;
8312;SDS011;4194;43.408;24.626;2022-12-13T00:24:37;11.87;;;7.03;;
8312;SDS011;4194;43.408;24.626;2022-12-13T00:27:03;10.57;;;7.20;;
8312;SDS011;4194;43.408;24.626;2022-12-13T00:29:29;11.13;;;7.43;;
8312;SDS011;4194;43.408;24.626;2022-12-13T00:31:55;11.90;;;6.77;;
8312;SDS011;4194;43.408;24.626;2022-12-13T00:34:20;10.57;;;6.97;;
8312;SDS011;4194;43.408;24.626;2022-12-13T00:36:46;12.37;;;6.77;;
8312;SDS011;4194;43.408;24.626;2022-12-13T00:39:13;9.73;;;7.33;;
8312;SDS011;4194;43.408;24.626;2022-12-13T00:41:40;9.33;;;7.07;;
8312;SDS011;4194;43.408;24.626;2022-12-13T00:44:08;10.03;;;6.97;;
8312;SDS011;4194;43.408;24.626;2022-12-13T00:46:35;9.90;;;7.07;;
8312;SDS011;4194;43.408;24.626;2022-12-13T00:49:02;9.07;;;6.27;;
8312;SDS011;4194;43.408;24.626;2022-12-13T00:51:29;11.40;;;6.37;;
8312;SDS011;4194;43.408;24.626;2022-12-13T00:53:56;10.67;;;7.17;;
8312;SDS011;4194;43.408;24.626;2022-12-13T00:56:23;9.30;;;6.63;;
8312;SDS011;4194;43.408;24.626;2022-12-13T00:58:51;10.13;;;7.27;;
8312;SDS011;4194;43.408;24.626;2022-12-13T01:01:19;12.10;;;7.47;;
8312;SDS011;4194;43.408;24.626;2022-12-13T01:03:46;10.87;;;6.97;;
8312;SDS011;4194;43.408;24.626;2022-12-13T01:06:13;8.87;;;6.20;;
8312;SDS011;4194;43.408;24.626;2022-12-13T01:08:42;11.33;;;7.80;;
8312;SDS011;4194;43.408;24.626;2022-12-13T01:11:09;10.43;;;6.93;;
8312;SDS011;4194;43.408;24.626;2022-12-13T01:13:36;11.50;;;6.80;;
8312;SDS011;4194;43.408;24.626;2022-12-13T01:16:03;11.57;;;7.37;;
8312;SDS011;4194;43.408;24.626;2022-12-13T01:18:30;11.33;;;7.37;;
8312;SDS011;4194;43.408;24.626;2022-12-13T01:21:17;11.50;;;7.57;;
8312;SDS011;4194;43.408;24.626;2022-12-13T01:23:42;12.00;;;6.87;;
8312;SDS011;4194;43.408;24.626;2022-12-13T01:26:10;9.97;;;7.50;;
8312;SDS011;4194;43.408;24.626;2022-12-13T01:28:38;10.77;;;7.23;;
8312;SDS011;4194;43.408;24.626;2022-12-13T01:31:05;9.53;;;6.23;;
8312;SDS011;4194;43.408;24.626;2022-12-13T01:33:36;9.57;;;6.27;;
8312;SDS011;4194;43.408;24.626;2022-12-13T01:36:04;10.57;;;6.83;;
8312;SDS011;4194;43.408;24.626;2022-12-13T01:38:32;10.73;;;7.67;;
8312;SDS011;4194;43.408;24.626;2022-12-13T01:40:58;10.47;;;7.00;;
8312;SDS011;4194;43.408;24.626;2022-12-13T01:45:50;8.77;;;6.23;;
8312;SDS011;4194;43.408;24.626;2022-12-13T01:48:18;9.63;;;6.70;;
8312;SDS011;4194;43.408;24.626;2022-12-13T01:50:49;11.20;;;6.87;;
8312;SDS011;4194;43.408;24.626;2022-12-13T01:53:18;9.27;;;6.50;;
8312;SDS011;4194;43.408;24.626;2022-12-13T01:55:48;9.43;;;6.47;;
8312;SDS011;4194;43.408;24.626;2022-12-13T01:58:15;7.97;;;5.60;;
8312;SDS011;4194;43.408;24.626;2022-12-13T02:00:41;9.30;;;6.67;;
8312;SDS011;4194;43.408;24.626;2022-12-13T02:03:07;9.40;;;6.77;;
8312;SDS011;4194;43.408;24.626;2022-12-13T02:06:09;9.53;;;6.67;;
8312;SDS011;4194;43.408;24.626;2022-12-13T02:08:30;6.93;;;4.97;;
8312;SDS011;4194;43.408;24.626;2022-12-13T02:10:57;10.33;;;6.50;;
8312;SDS011;4194;43.408;24.626;2022-12-13T02:13:23;9.00;;;5.67;;
8312;SDS011;4194;43.408;24.626;2022-12-13T02:15:57;8.73;;;5.97;;
8312;SDS011;4194;43.408;24.626;2022-12-13T02:37:39;9.47;;;5.77;;
8312;SDS011;4194;43.408;24.626;2022-12-13T02:42:49;8.77;;;6.33;;
8312;SDS011;4194;43.408;24.626;2022-12-13T02:45:29;9.70;;;5.80;;
8312;SDS011;4194;43.408;24.626;2022-12-13T02:48:02;7.63;;;5.37;;
8312;SDS011;4194;43.408;24.626;2022-12-13T02:50:30;9.53;;;6.00;;
8312;SDS011;4194;43.408;24.626;2022-12-13T02:52:57;9.97;;;5.90;;
8312;SDS011;4194;43.408;24.626;2022-12-13T02:55:24;8.43;;;5.77;;
8312;SDS011;4194;43.408;24.626;2022-12-13T02:57:50;8.00;;;5.63;;
8312;SDS011;4194;43.408;24.626;2022-12-13T03:00:16;8.80;;;5.63;;
8312;SDS011;4194;43.408;24.626;2022-12-13T03:08:20;9.93;;;6.87;;
8312;SDS011;4194;43.408;24.626;2022-12-13T03:13:46;8.53;;;6.50;;
8312;SDS011;4194;43.408;24.626;2022-12-13T03:19:01;11.07;;;6.83;;
8312;SDS011;4194;43.408;24.626;2022-12-13T03:21:29;11.40;;;6.33;;
8312;SDS011;4194;43.408;24.626;2022-12-13T03:24:03;8.10;;;6.40;;
8312;SDS011;4194;43.408;24.626;2022-12-13T03:26:28;10.33;;;6.93;;
8312;SDS011;4194;43.408;24.626;2022-12-13T03:28:54;9.73;;;6.73;;
8312;SDS011;4194;43.408;24.626;2022-12-13T03:31:20;9.87;;;6.53;;
8312;SDS011;4194;43.408;24.626;2022-12-13T03:33:46;10.47;;;7.30;;
8312;SDS011;4194;43.408;24.626;2022-12-13T03:36:11;11.60;;;7.43;;
8312;SDS011;4194;43.408;24.626;2022-12-13T03:38:38;10.17;;;7.03;;
8312;SDS011;4194;43.408;24.626;2022-12-13T03:41:05;12.10;;;7.40;;
8312;SDS011;4194;43.408;24.626;2022-12-13T03:43:37;10.73;;;6.90;;
8312;SDS011;4194;43.408;24.626;2022-12-13T03:46:04;11.53;;;7.13;;
8312;SDS011;4194;43.408;24.626;2022-12-13T03:48:30;11.37;;;7.53;;
8312;SDS011;4194;43.408;24.626;2022-12-13T03:50:56;11.90;;;6.87;;
8312;SDS011;4194;43.408;24.626;2022-12-13T03:53:22;9.70;;;6.87;;
8312;SDS011;4194;43.408;24.626;2022-12-13T03:55:48;9.70;;;7.03;;
8312;SDS011;4194;43.408;24.626;2022-12-13T03:58:14;11.13;;;7.13;;
8312;SDS011;4194;43.408;24.626;2022-12-13T04:00:40;11.93;;;7.50;;
8312;SDS011;4194;43.408;24.626;2022-12-13T04:03:05;10.80;;;7.30;;
8312;SDS011;4194;43.408;24.626;2022-12-13T04:05:31;10.80;;;7.17;;
8312;SDS011;4194;43.408;24.626;2022-12-13T04:07:57;11.50;;;7.33;;
8312;SDS011;4194;43.408;24.626;2022-12-13T04:10:23;11.87;;;7.07;;
8312;SDS011;4194;43.408;24.626;2022-12-13T04:12:49;10.97;;;7.77;;
8312;SDS011;4194;43.408;24.626;2022-12-13T04:15:34;13.00;;;7.83;;
8312;SDS011;4194;43.408;24.626;2022-12-13T04:17:59;10.90;;;7.77;;
8312;SDS011;4194;43.408;24.626;2022-12-13T04:20:25;10.40;;;7.20;;
8312;SDS011;4194;43.408;24.626;2022-12-13T04:22:51;10.10;;;7.17;;
8312;SDS011;4194;43.408;24.626;2022-12-13T04:25:17;13.00;;;7.10;;
8312;SDS011;4194;43.408;24.626;2022-12-13T04:27:43;11.80;;;8.07;;
8312;SDS011;4194;43.408;24.626;2022-12-13T04:30:09;10.50;;;7.63;;
8312;SDS011;4194;43.408;24.626;2022-12-13T04:32:35;12.50;;;7.00;;
8312;SDS011;4194;43.408;24.626;2022-12-13T04:35:01;10.47;;;7.33;;
8312;SDS011;4194;43.408;24.626;2022-12-13T04:37:27;10.30;;;7.47;;
8312;SDS011;4194;43.408;24.626;2022-12-13T04:39:53;12.63;;;7.37;;
8312;SDS011;4194;43.408;24.626;2022-12-13T04:42:19;9.97;;;7.33;;
8312;SDS011;4194;43.408;24.626;2022-12-13T04:44:44;12.03;;;8.27;;
8312;SDS011;4194;43.408;24.626;2022-12-13T04:47:10;12.43;;;8.30;;
8312;SDS011;4194;43.408;24.626;2022-12-13T04:49:36;11.57;;;7.63;;
8312;SDS011;4194;43.408;24.626;2022-12-13T04:52:02;12.77;;;8.33;;
8312;SDS011;4194;43.408;24.626;2022-12-13T04:54:30;13.03;;;8.10;;
8312;SDS011;4194;43.408;24.626;2022-12-13T04:56:56;14.57;;;8.80;;
8312;SDS011;4194;43.408;24.626;2022-12-13T04:59:22;14.53;;;9.00;;
8312;SDS011;4194;43.408;24.626;2022-12-13T05:01:48;14.33;;;7.97;;
8312;SDS011;4194;43.408;24.626;2022-12-13T05:04:13;11.43;;;8.00;;
8312;SDS011;4194;43.408;24.626;2022-12-13T05:06:39;12.63;;;9.17;;
8312;SDS011;4194;43.408;24.626;2022-12-13T05:09:09;10.67;;;7.80;;
8312;SDS011;4194;43.408;24.626;2022-12-13T05:11:34;11.90;;;7.67;;
8312;SDS011;4194;43.408;24.626;2022-12-13T05:14:00;11.80;;;7.80;;
8312;SDS011;4194;43.408;24.626;2022-12-13T05:16:26;13.30;;;8.57;;
8312;SDS011;4194;43.408;24.626;2022-12-13T05:18:52;12.30;;;7.57;;
8312;SDS011;4194;43.408;24.626;2022-12-13T05:21:17;16.43;;;8.53;;
8312;SDS011;4194;43.408;24.626;2022-12-13T05:23:43;12.60;;;8.30;;
8312;SDS011;4194;43.408;24.626;2022-12-13T05:26:09;12.53;;;8.70;;
8312;SDS011;4194;43.408;24.626;2022-12-13T05:28:35;11.40;;;8.33;;
8312;SDS011;4194;43.408;24.626;2022-12-13T05:31:07;15.47;;;9.03;;
8312;SDS011;4194;43.408;24.626;2022-12-13T05:33:34;13.27;;;8.43;;
8312;SDS011;4194;43.408;24.626;2022-12-13T05:36:00;12.10;;;8.43;;
8312;SDS011;4194;43.408;24.626;2022-12-13T05:38:26;14.17;;;8.80;;
8312;SDS011;4194;43.408;24.626;2022-12-13T05:40:52;14.83;;;9.33;;
8312;SDS011;4194;43.408;24.626;2022-12-13T05:43:18;10.27;;;7.53;;
8312;SDS011;4194;43.408;24.626;2022-12-13T05:45:43;13.73;;;9.33;;
8312;SDS011;4194;43.408;24.626;2022-12-13T05:48:10;13.03;;;7.50;;
8312;SDS011;4194;43.408;24.626;2022-12-13T05:50:36;12.27;;;8.00;;
8312;SDS011;4194;43.408;24.626;2022-12-13T05:53:04;13.37;;;9.00;;
8312;SDS011;4194;43.408;24.626;2022-12-13T05:55:30;14.73;;;8.77;;
8312;SDS011;4194;43.408;24.626;2022-12-13T05:57:56;14.33;;;8.20;;
8312;SDS011;4194;43.408;24.626;2022-12-13T06:00:23;11.27;;;7.40;;
8312;SDS011;4194;43.408;24.626;2022-12-13T06:02:49;11.77;;;7.80;;
8312;SDS011;4194;43.408;24.626;2022-12-13T06:05:14;10.80;;;7.37;;
8312;SDS011;4194;43.408;24.626;2022-12-13T06:07:40;11.77;;;7.80;;
8312;SDS011;4194;43.408;24.626;2022-12-13T06:10:06;11.87;;;7.93;;
8312;SDS011;4194;43.408;24.626;2022-12-13T06:12:33;13.13;;;7.90;;
8312;SDS011;4194;43.408;24.626;2022-12-13T06:15:00;13.20;;;8.17;;
8312;SDS011;4194;43.408;24.626;2022-12-13T06:17:30;12.50;;;8.00;;
8312;SDS011;4194;43.408;24.626;2022-12-13T06:19:56;13.43;;;8.40;;
8312;SDS011;4194;43.408;24.626;2022-12-13T06:22:23;14.93;;;8.87;;
8312;SDS011;4194;43.408;24.626;2022-12-13T06:24:49;12.93;;;8.47;;
8312;SDS011;4194;43.408;24.626;2022-12-13T06:27:15;15.13;;;10.13;;
8312;SDS011;4194;43.408;24.626;2022-12-13T06:29:40;13.67;;;8.97;;
8312;SDS011;4194;43.408;24.626;2022-12-13T06:32:06;15.10;;;9.03;;
8312;SDS011;4194;43.408;24.626;2022-12-13T06:34:32;14.00;;;8.97;;
8312;SDS011;4194;43.408;24.626;2022-12-13T06:36:59;12.43;;;7.93;;
8312;SDS011;4194;43.408;24.626;2022-12-13T06:39:25;9.87;;;7.10;;
8312;SDS011;4194;43.408;24.626;2022-12-13T06:41:51;10.93;;;7.77;;
8312;SDS011;4194;43.408;24.626;2022-12-13T06:44:16;13.37;;;7.60;;
8312;SDS011;4194;43.408;24.626;2022-12-13T06:46:42;12.13;;;7.73;;
8312;SDS011;4194;43.408;24.626;2022-12-13T06:49:08;11.37;;;7.37;;
8312;SDS011;4194;43.408;24.626;2022-12-13T06:51:33;10.43;;;7.03;;
8312;SDS011;4194;43.408;24.626;2022-12-13T06:54:00;11.20;;;7.87;;
8312;SDS011;4194;43.408;24.626;2022-12-13T06:56:26;10.90;;;7.63;;
8312;SDS011;4194;43.408;24.626;2022-12-13T06:58:52;11.93;;;7.47;;
8312;SDS011;4194;43.408;24.626;2022-12-13T07:01:18;10.93;;;6.33;;
8312;SDS011;4194;43.408;24.626;2022-12-13T07:03:44;13.93;;;8.20;;
8312;SDS011;4194;43.408;24.626;2022-12-13T07:06:20;11.60;;;6.30;;
8312;SDS011;4194;43.408;24.626;2022-12-13T07:08:48;11.93;;;8.07;;
8312;SDS011;4194;43.408;24.626;2022-12-13T07:11:16;9.77;;;6.53;;
8312;SDS011;4194;43.408;24.626;2022-12-13T07:13:42;13.77;;;7.57;;
8312;SDS011;4194;43.408;24.626;2022-12-13T07:16:09;11.57;;;6.90;;
8312;SDS011;4194;43.408;24.626;2022-12-13T07:18:35;10.57;;;6.80;;
8312;SDS011;4194;43.408;24.626;2022-12-13T07:21:05;11.20;;;7.20;;
8312;SDS011;4194;43.408;24.626;2022-12-13T07:23:33;12.20;;;6.87;;
8312;SDS011;4194;43.408;24.626;2022-12-13T07:25:59;9.27;;;6.60;;
8312;SDS011;4194;43.408;24.626;2022-12-13T07:28:25;10.83;;;7.27;;
8312;SDS011;4194;43.408;24.626;2022-12-13T07:30:50;11.20;;;7.00;;
8312;SDS011;4194;43.408;24.626;2022-12-13T07:33:16;11.43;;;7.33;;
8312;SDS011;4194;43.408;24.626;2022-12-13T07:35:42;13.90;;;7.80;;
8312;SDS011;4194;43.408;24.626;2022-12-13T07:38:08;16.90;;;9.37;;
8312;SDS011;4194;43.408;24.626;2022-12-13T07:40:35;14.70;;;9.33;;
8312;SDS011;4194;43.408;24.626;2022-12-13T07:43:03;13.07;;;8.43;;
8312;SDS011;4194;43.408;24.626;2022-12-13T07:45:29;11.73;;;8.30;;
8312;SDS011;4194;43.408;24.626;2022-12-13T07:47:55;14.37;;;8.23;;
8312;SDS011;4194;43.408;24.626;2022-12-13T07:50:21;13.57;;;8.10;;
8312;SDS011;4194;43.408;24.626;2022-12-13T07:52:47;13.27;;;7.97;;
8312;SDS011;4194;43.408;24.626;2022-12-13T07:55:14;13.27;;;7.73;;
8312;SDS011;4194;43.408;24.626;2022-12-13T07:57:40;13.13;;;7.67;;
8312;SDS011;4194;43.408;24.626;2022-12-13T08:00:06;10.03;;;7.00;;
8312;SDS011;4194;43.408;24.626;2022-12-13T08:02:32;11.77;;;7.90;;
8312;SDS011;4194;43.408;24.626;2022-12-13T08:04:58;11.67;;;7.67;;
8312;SDS011;4194;43.408;24.626;2022-12-13T08:07:23;11.10;;;7.03;;
8312;SDS011;4194;43.408;24.626;2022-12-13T08:09:49;11.27;;;7.53;;
8312;SDS011;4194;43.408;24.626;2022-12-13T08:12:15;9.90;;;6.90;;
8312;SDS011;4194;43.408;24.626;2022-12-13T08:14:40;10.67;;;6.80;;
8312;SDS011;4194;43.408;24.626;2022-12-13T08:17:06;13.80;;;7.03;;
8312;SDS011;4194;43.408;24.626;2022-12-13T08:19:32;13.67;;;7.93;;
8312;SDS011;4194;43.408;24.626;2022-12-13T08:21:58;10.83;;;7.33;;
8312;SDS011;4194;43.408;24.626;2022-12-13T08:24:24;10.03;;;6.53;;
8312;SDS011;4194;43.408;24.626;2022-12-13T08:26:51;12.10;;;8.20;;
8312;SDS011;4194;43.408;24.626;2022-12-13T08:29:18;10.55;;;6.93;;
8312;SDS011;4194;43.408;24.626;2022-12-13T08:31:43;21.40;;;10.97;;
8312;SDS011;4194;43.408;24.626;2022-12-13T08:34:10;30.40;;;15.73;;
8312;SDS011;4194;43.408;24.626;2022-12-13T08:36:35;22.20;;;11.80;;
8312;SDS011;4194;43.408;24.626;2022-12-13T08:39:01;16.13;;;9.50;;
8312;SDS011;4194;43.408;24.626;2022-12-13T08:41:28;29.60;;;16.67;;
8312;SDS011;4194;43.408;24.626;2022-12-13T08:43:54;24.20;;;12.73;;
8312;SDS011;4194;43.408;24.626;2022-12-13T08:46:20;16.70;;;9.80;;
8312;SDS011;4194;43.408;24.626;2022-12-13T08:48:46;17.50;;;10.53;;
8312;SDS011;4194;43.408;24.626;2022-12-13T08:51:12;16.83;;;9.77;;
8312;SDS011;4194;43.408;24.626;2022-12-13T08:53:42;15.77;;;8.97;;
8312;SDS011;4194;43.408;24.626;2022-12-13T08:56:11;11.93;;;8.37;;
8312;SDS011;4194;43.408;24.626;2022-12-13T08:58:37;10.23;;;6.90;;
8312;SDS011;4194;43.408;24.626;2022-12-13T09:01:04;11.63;;;7.10;;
8312;SDS011;4194;43.408;24.626;2022-12-13T09:03:31;11.50;;;7.60;;
8312;SDS011;4194;43.408;24.626;2022-12-13T09:06:04;14.67;;;7.50;;
8312;SDS011;4194;43.408;24.626;2022-12-13T09:08:34;13.17;;;8.13;;
8312;SDS011;4194;43.408;24.626;2022-12-13T09:11:01;12.37;;;8.03;;
8312;SDS011;4194;43.408;24.626;2022-12-13T09:13:28;11.73;;;7.10;;
8312;SDS011;4194;43.408;24.626;2022-12-13T09:15:55;15.40;;;9.97;;
8312;SDS011;4194;43.408;24.626;2022-12-13T09:18:20;10.57;;;7.43;;
8312;SDS011;4194;43.408;24.626;2022-12-13T09:20:46;12.20;;;7.80;;
8312;SDS011;4194;43.408;24.626;2022-12-13T09:23:12;10.53;;;7.43;;
8312;SDS011;4194;43.408;24.626;2022-12-13T09:25:38;12.40;;;7.17;;
8312;SDS011;4194;43.408;24.626;2022-12-13T09:28:04;13.27;;;7.70;;
8312;SDS011;4194;43.408;24.626;2022-12-13T09:30:31;11.77;;;6.40;;
8312;SDS011;4194;43.408;24.626;2022-12-13T09:32:57;10.90;;;7.50;;
8312;SDS011;4194;43.408;24.626;2022-12-13T09:35:22;9.90;;;6.87;;
8312;SDS011;4194;43.408;24.626;2022-12-13T09:37:48;14.60;;;8.83;;
8312;SDS011;4194;43.408;24.626;2022-12-13T09:40:19;12.97;;;7.17;;
8312;SDS011;4194;43.408;24.626;2022-12-13T09:42:48;11.63;;;7.57;;
8312;SDS011;4194;43.408;24.626;2022-12-13T09:45:16;10.93;;;6.97;;
8312;SDS011;4194;43.408;24.626;2022-12-13T09:47:43;9.70;;;6.33;;
8312;SDS011;4194;43.408;24.626;2022-12-13T09:52:44;10.47;;;6.63;;
8312;SDS011;4194;43.408;24.626;2022-12-13T09:55:20;11.67;;;7.57;;
8312;SDS011;4194;43.408;24.626;2022-12-13T09:57:56;10.10;;;7.10;;
8312;SDS011;4194;43.408;24.626;2022-12-13T10:00:26;9.10;;;6.30;;
8312;SDS011;4194;43.408;24.626;2022-12-13T10:02:57;10.00;;;6.67;;
8312;SDS011;4194;43.408;24.626;2022-12-13T10:07:57;11.53;;;7.67;;
8312;SDS011;4194;43.408;24.626;2022-12-13T10:10:25;9.57;;;6.10;;
8312;SDS011;4194;43.408;24.626;2022-12-13T10:13:02;9.87;;;6.67;;
8312;SDS011;4194;43.408;24.626;2022-12-13T10:15:50;13.57;;;8.10;;
8312;SDS011;4194;43.408;24.626;2022-12-13T10:18:25;11.40;;;7.07;;
8312;SDS011;4194;43.408;24.626;2022-12-13T10:21:02;9.90;;;6.83;;
8312;SDS011;4194;43.408;24.626;2022-12-13T10:23:32;9.43;;;6.30;;
8312;SDS011;4194;43.408;24.626;2022-12-13T10:25:58;9.43;;;6.57;;
8312;SDS011;4194;43.408;24.626;2022-12-13T10:28:26;10.63;;;6.90;;
8312;SDS011;4194;43.408;24.626;2022-12-13T10:30:54;10.77;;;7.40;;
8312;SDS011;4194;43.408;24.626;2022-12-13T10:33:26;10.43;;;6.80;;
8312;SDS011;4194;43.408;24.626;2022-12-13T10:38:38;9.50;;;6.77;;
8312;SDS011;4194;43.408;24.626;2022-12-13T10:47:26;8.27;;;6.20;;
8312;SDS011;4194;43.408;24.626;2022-12-13T10:49:37;9.93;;;6.50;;
8312;SDS011;4194;43.408;24.626;2022-12-13T10:54:45;9.93;;;6.73;;
8312;SDS011;4194;43.408;24.626;2022-12-13T10:57:14;9.13;;;5.97;;
8312;SDS011;4194;43.408;24.626;2022-12-13T10:59:42;10.40;;;6.40;;
8312;SDS011;4194;43.408;24.626;2022-12-13T11:05:24;7.83;;;5.83;;
8312;SDS011;4194;43.408;24.626;2022-12-13T11:07:52;8.93;;;5.70;;
8312;SDS011;4194;43.408;24.626;2022-12-13T11:10:26;7.27;;;5.40;;
8312;SDS011;4194;43.408;24.626;2022-12-13T11:12:55;8.13;;;6.43;;
8312;SDS011;4194;43.408;24.626;2022-12-13T11:15:25;9.20;;;5.97;;
8312;SDS011;4194;43.408;24.626;2022-12-13T11:17:54;8.50;;;5.80;;
8312;SDS011;4194;43.408;24.626;2022-12-13T11:20:48;9.07;;;5.97;;
8312;SDS011;4194;43.408;24.626;2022-12-13T11:23:30;8.23;;;6.20;;
8312;SDS011;4194;43.408;24.626;2022-12-13T11:26:04;7.73;;;5.73;;
8312;SDS011;4194;43.408;24.626;2022-12-13T11:31:32;8.40;;;5.87;;
8312;SDS011;4194;43.408;24.626;2022-12-13T11:44:42;10.33;;;6.30;;
8312;SDS011;4194;43.408;24.626;2022-12-13T11:47:23;6.67;;;5.40;;
8312;SDS011;4194;43.408;24.626;2022-12-13T11:49:53;9.13;;;6.13;;
8312;SDS011;4194;43.408;24.626;2022-12-13T11:52:28;10.17;;;6.50;;
8312;SDS011;4194;43.408;24.626;2022-12-13T11:57:41;9.63;;;5.67;;
8312;SDS011;4194;43.408;24.626;2022-12-13T12:03:19;10.00;;;6.53;;
8312;SDS011;4194;43.408;24.626;2022-12-13T12:05:54;9.77;;;6.27;;
8312;SDS011;4194;43.408;24.626;2022-12-13T12:11:17;14.23;;;8.13;;
8312;SDS011;4194;43.408;24.626;2022-12-13T12:13:50;8.07;;;5.60;;
8312;SDS011;4194;43.408;24.626;2022-12-13T12:16:32;8.73;;;5.70;;
8312;SDS011;4194;43.408;24.626;2022-12-13T12:19:01;10.20;;;7.07;;
8312;SDS011;4194;43.408;24.626;2022-12-13T12:24:11;7.40;;;5.20;;
8312;SDS011;4194;43.408;24.626;2022-12-13T12:32:41;6.40;;;5.53;;
8312;SDS011;4194;43.408;24.626;2022-12-13T12:37:58;7.53;;;5.70;;
8312;SDS011;4194;43.408;24.626;2022-12-13T12:52:18;8.70;;;5.60;;
8312;SDS011;4194;43.408;24.626;2022-12-13T13:00:15;7.93;;;5.47;;
8312;SDS011;4194;43.408;24.626;2022-12-13T13:02:46;8.93;;;6.00;;
8312;SDS011;4194;43.408;24.626;2022-12-13T13:05:25;8.30;;;6.00;;
8312;SDS011;4194;43.408;24.626;2022-12-13T13:10:40;14.37;;;8.27;;
8312;SDS011;4194;43.408;24.626;2022-12-13T13:15:58;9.10;;;6.83;;
8312;SDS011;4194;43.408;24.626;2022-12-13T13:23:48;7.83;;;6.70;;
8312;SDS011;4194;43.408;24.626;2022-12-13T13:26:31;10.83;;;6.93;;
8312;SDS011;4194;43.408;24.626;2022-12-13T13:32:04;9.80;;;7.23;;
8312;SDS011;4194;43.408;24.626;2022-12-13T13:34:38;9.03;;;6.40;;
8312;SDS011;4194;43.408;24.626;2022-12-13T13:37:25;8.57;;;6.67;;
8312;SDS011;4194;43.408;24.626;2022-12-13T13:53:56;9.83;;;6.47;;
8312;SDS011;4194;43.408;24.626;2022-12-13T13:56:33;10.47;;;6.53;;
8312;SDS011;4194;43.408;24.626;2022-12-13T14:22:14;12.07;;;8.13;;
8312;SDS011;4194;43.408;24.626;2022-12-13T14:30:14;13.77;;;9.27;;
8312;SDS011;4194;43.408;24.626;2022-12-13T14:32:42;15.23;;;8.13;;
8312;SDS011;4194;43.408;24.626;2022-12-13T14:35:32;14.37;;;8.40;;
8312;SDS011;4194;43.408;24.626;2022-12-13T14:42:51;21.03;;;12.43;;
8312;SDS011;4194;43.408;24.626;2022-12-13T14:45:24;83.67;;;37.13;;
8312;SDS011;4194;43.408;24.626;2022-12-13T14:47:55;41.70;;;21.20;;
8312;SDS011;4194;43.408;24.626;2022-12-13T14:50:24;35.23;;;19.17;;
8312;SDS011;4194;43.408;24.626;2022-12-13T14:52:51;39.33;;;22.30;;
8312;SDS011;4194;43.408;24.626;2022-12-13T14:55:29;58.13;;;35.33;;
8312;SDS011;4194;43.408;24.626;2022-12-13T14:57:57;55.37;;;34.83;;
8312;SDS011;4194;43.408;24.626;2022-12-13T15:02:53;32.07;;;21.00;;
8312;SDS011;4194;43.408;24.626;2022-12-13T15:08:15;36.03;;;22.83;;
8312;SDS011;4194;43.408;24.626;2022-12-13T15:10:51;43.33;;;26.57;;
8312;SDS011;4194;43.408;24.626;2022-12-13T15:16:00;62.30;;;38.13;;
8312;SDS011;4194;43.408;24.626;2022-12-13T15:18:28;64.63;;;38.47;;
8312;SDS011;4194;43.408;24.626;2022-12-13T15:20:55;63.00;;;40.37;;
8312;SDS011;4194;43.408;24.626;2022-12-13T15:23:32;73.20;;;43.77;;
8312;SDS011;4194;43.408;24.626;2022-12-13T15:26:15;90.97;;;48.23;;
8312;SDS011;4194;43.408;24.626;2022-12-13T15:28:42;77.97;;;43.13;;
8312;SDS011;4194;43.408;24.626;2022-12-13T15:31:10;77.13;;;41.23;;
8312;SDS011;4194;43.408;24.626;2022-12-13T15:33:39;74.03;;;39.23;;
8312;SDS011;4194;43.408;24.626;2022-12-13T15:36:06;73.73;;;38.63;;
8312;SDS011;4194;43.408;24.626;2022-12-13T15:38:33;83.77;;;42.20;;
8312;SDS011;4194;43.408;24.626;2022-12-13T15:41:01;105.33;;;50.07;;
8312;SDS011;4194;43.408;24.626;2022-12-13T15:43:34;105.13;;;56.43;;
8312;SDS011;4194;43.408;24.626;2022-12-13T15:46:02;77.67;;;43.83;;
8312;SDS011;4194;43.408;24.626;2022-12-13T15:48:31;57.93;;;33.33;;
8312;SDS011;4194;43.408;24.626;2022-12-13T15:51:11;69.57;;;40.03;;
8312;SDS011;4194;43.408;24.626;2022-12-13T15:56:32;287.27;;;114.13;;
8312;SDS011;4194;43.408;24.626;2022-12-13T15:59:00;299.07;;;114.70;;
8312;SDS011;4194;43.408;24.626;2022-12-13T16:01:32;199.73;;;80.10;;
8312;SDS011;4194;43.408;24.626;2022-12-13T16:04:00;704.93;;;295.87;;
8312;SDS011;4194;43.408;24.626;2022-12-13T16:06:28;827.07;;;368.67;;
8312;SDS011;4194;43.408;24.626;2022-12-13T16:08:57;170.07;;;77.33;;
8312;SDS011;4194;43.408;24.626;2022-12-13T16:11:29;127.80;;;56.37;;
8312;SDS011;4194;43.408;24.626;2022-12-13T16:16:55;49.83;;;28.03;;
8312;SDS011;4194;43.408;24.626;2022-12-13T16:19:46;108.93;;;52.87;;
8312;SDS011;4194;43.408;24.626;2022-12-13T16:22:12;96.67;;;46.83;;
8312;SDS011;4194;43.408;24.626;2022-12-13T16:24:37;87.40;;;44.93;;
8312;SDS011;4194;43.408;24.626;2022-12-13T16:27:03;66.77;;;34.87;;
8312;SDS011;4194;43.408;24.626;2022-12-13T16:29:29;44.23;;;27.70;;
8312;SDS011;4194;43.408;24.626;2022-12-13T16:31:55;50.07;;;33.80;;
8312;SDS011;4194;43.408;24.626;2022-12-13T16:34:21;59.53;;;35.43;;
8312;SDS011;4194;43.408;24.626;2022-12-13T16:36:47;71.70;;;36.73;;
8312;SDS011;4194;43.408;24.626;2022-12-13T16:39:16;59.87;;;35.57;;
8312;SDS011;4194;43.408;24.626;2022-12-13T16:41:42;60.37;;;35.43;;
8312;SDS011;4194;43.408;24.626;2022-12-13T16:44:31;61.87;;;38.40;;
8312;SDS011;4194;43.408;24.626;2022-12-13T16:47:00;62.80;;;41.13;;
8312;SDS011;4194;43.408;24.626;2022-12-13T16:49:27;60.47;;;40.93;;
8312;SDS011;4194;43.408;24.626;2022-12-13T16:51:54;59.50;;;39.07;;
8312;SDS011;4194;43.408;24.626;2022-12-13T16:54:21;62.73;;;39.17;;
8312;SDS011;4194;43.408;24.626;2022-12-13T16:56:48;60.40;;;35.93;;
8312;SDS011;4194;43.408;24.626;2022-12-13T16:59:16;54.43;;;35.13;;
8312;SDS011;4194;43.408;24.626;2022-12-13T17:01:44;52.40;;;33.23;;
8312;SDS011;4194;43.408;24.626;2022-12-13T17:04:14;51.23;;;34.03;;
8312;SDS011;4194;43.408;24.626;2022-12-13T17:06:43;57.33;;;36.03;;
8312;SDS011;4194;43.408;24.626;2022-12-13T17:09:09;60.63;;;34.47;;
8312;SDS011;4194;43.408;24.626;2022-12-13T17:11:35;70.57;;;38.57;;
8312;SDS011;4194;43.408;24.626;2022-12-13T17:14:01;103.47;;;49.93;;
8312;SDS011;4194;43.408;24.626;2022-12-13T17:16:28;82.27;;;41.07;;
8312;SDS011;4194;43.408;24.626;2022-12-13T17:18:55;77.87;;;44.13;;
8312;SDS011;4194;43.408;24.626;2022-12-13T17:21:21;93.13;;;53.47;;
8312;SDS011;4194;43.408;24.626;2022-12-13T17:23:52;116.47;;;66.30;;
8312;SDS011;4194;43.408;24.626;2022-12-13T17:26:21;115.07;;;67.40;;
8312;SDS011;4194;43.408;24.626;2022-12-13T17:28:47;113.30;;;62.40;;
8312;SDS011;4194;43.408;24.626;2022-12-13T17:31:14;119.83;;;63.93;;
8312;SDS011;4194;43.408;24.626;2022-12-13T17:33:40;104.43;;;57.60;;
8312;SDS011;4194;43.408;24.626;2022-12-13T17:36:07;79.33;;;44.57;;
8312;SDS011;4194;43.408;24.626;2022-12-13T17:38:34;61.60;;;37.97;;
8312;SDS011;4194;43.408;24.626;2022-12-13T17:41:00;57.70;;;35.13;;
8312;SDS011;4194;43.408;24.626;2022-12-13T17:43:26;107.77;;;53.40;;
8312;SDS011;4194;43.408;24.626;2022-12-13T17:46:00;56.03;;;32.93;;
8312;SDS011;4194;43.408;24.626;2022-12-13T17:48:26;46.93;;;28.60;;
8312;SDS011;4194;43.408;24.626;2022-12-13T17:50:52;45.67;;;30.97;;
8312;SDS011;4194;43.408;24.626;2022-12-13T17:53:19;45.93;;;28.80;;
8312;SDS011;4194;43.408;24.626;2022-12-13T17:55:57;44.60;;;28.30;;